createdAt,value
2022-10-18T00:00:48.606Z,18.70
2022-10-18T00:03:15.302Z,18.70
2022-10-18T00:05:41.959Z,18.70
2022-10-18T00:08:09.549Z,18.70
2022-10-18T00:10:36.268Z,18.70
2022-10-18T00:13:03.064Z,18.70
2022-10-18T00:15:32.881Z,18.70
2022-10-18T00:17:59.776Z,18.70
2022-10-18T00:20:26.476Z,18.70
2022-10-18T00:22:53.137Z,18.70
2022-10-18T00:25:19.800Z,18.70
2022-10-18T00:27:48.829Z,18.70
2022-10-18T00:30:15.520Z,18.70
2022-10-18T00:32:42.560Z,18.70
2022-10-18T00:35:09.349Z,18.70
2022-10-18T00:37:36.269Z,18.70
2022-10-18T00:40:03.638Z,18.60
2022-10-18T00:42:34.161Z,18.60
2022-10-18T00:45:12.692Z,18.60
2022-10-18T00:47:39.628Z,18.60
2022-10-18T00:50:10.239Z,18.60
2022-10-18T00:52:47.594Z,18.50
2022-10-18T00:55:14.400Z,18.60
2022-10-18T00:57:42.944Z,18.50
2022-10-18T01:00:12.643Z,18.50
2022-10-18T01:02:41.558Z,18.50
2022-10-18T01:05:10.158Z,18.50
2022-10-18T01:08:05.924Z,18.50
2022-10-18T01:10:41.553Z,18.50
2022-10-18T01:13:23.406Z,18.40
2022-10-18T01:16:10.110Z,18.40
2022-10-18T01:18:55.248Z,18.40
2022-10-18T01:21:38.287Z,18.40
2022-10-18T01:24:30.828Z,18.40
2022-10-18T01:27:23.857Z,18.40
2022-10-18T01:29:59.137Z,18.40
2022-10-18T01:32:34.815Z,18.50
2022-10-18T01:35:19.349Z,18.40
2022-10-18T01:37:52.728Z,18.50
2022-10-18T01:40:22.161Z,18.40
2022-10-18T01:42:50.040Z,18.50
2022-10-18T01:45:17.137Z,18.50
2022-10-18T01:47:45.617Z,18.50
2022-10-18T01:50:17.108Z,18.50
2022-10-18T01:52:52.937Z,18.50
2022-10-18T01:55:35.438Z,18.50
2022-10-18T01:58:25.049Z,18.50
2022-10-18T02:01:02.724Z,18.60
2022-10-18T02:03:34.724Z,18.50
2022-10-18T02:06:13.659Z,18.50
2022-10-18T02:08:51.381Z,18.60
2022-10-18T02:11:18.569Z,18.60
2022-10-18T02:13:55.430Z,18.50
2022-10-18T02:16:31.041Z,18.50
2022-10-18T02:19:34.880Z,18.50
2022-10-18T02:22:05.206Z,18.60
2022-10-18T02:24:54.602Z,18.60
2022-10-18T02:27:21.890Z,18.60
2022-10-18T02:29:51.142Z,18.60
2022-10-18T02:32:34.073Z,18.60
2022-10-18T02:35:30.415Z,18.60
2022-10-18T02:37:58.644Z,18.60
2022-10-18T02:40:26.802Z,18.70
2022-10-18T02:43:00.038Z,18.60
2022-10-18T02:45:27.240Z,18.70
2022-10-18T02:47:53.948Z,18.70
2022-10-18T02:50:20.568Z,18.70
2022-10-18T02:52:47.205Z,18.70
2022-10-18T02:55:15.922Z,18.70
2022-10-18T02:57:42.568Z,18.70
2022-10-18T03:00:10.267Z,18.70
2022-10-18T03:02:37.077Z,18.70
2022-10-18T03:05:03.967Z,18.70
2022-10-18T03:07:30.925Z,18.70
2022-10-18T03:09:57.796Z,18.80
2022-10-18T03:12:24.400Z,18.70
2022-10-18T03:14:52.189Z,18.70
2022-10-18T03:17:18.824Z,18.70
2022-10-18T03:19:45.472Z,18.70
2022-10-18T03:22:12.080Z,18.70
2022-10-18T03:24:38.683Z,18.70
2022-10-18T03:27:05.302Z,18.80
2022-10-18T03:29:32.049Z,18.80
2022-10-18T03:31:58.635Z,18.80
2022-10-18T03:34:27.452Z,18.80
2022-10-18T03:36:54.854Z,18.80
2022-10-18T03:39:21.533Z,18.80
2022-10-18T03:41:48.184Z,18.80
2022-10-18T03:44:14.782Z,18.80
2022-10-18T03:46:41.600Z,18.80
2022-10-18T03:49:08.279Z,18.80
2022-10-18T03:51:34.914Z,18.80
2022-10-18T03:54:01.581Z,18.80
2022-10-18T03:56:28.203Z,18.80
2022-10-18T03:58:56.962Z,18.80
2022-10-18T04:01:23.697Z,18.80
2022-10-18T04:03:50.317Z,18.80
2022-10-18T04:06:19.252Z,18.80
2022-10-18T04:08:45.847Z,18.80
2022-10-18T04:11:15.177Z,18.80
2022-10-18T04:13:41.822Z,18.80
2022-10-18T04:16:08.404Z,18.80
2022-10-18T04:18:35.038Z,18.80
2022-10-18T04:21:01.694Z,18.80
2022-10-18T04:23:32.812Z,18.80
2022-10-18T04:26:02.888Z,18.80
2022-10-18T04:28:37.080Z,18.80
2022-10-18T04:31:03.705Z,18.80
2022-10-18T04:33:30.289Z,18.80
2022-10-18T04:35:59.191Z,18.80
2022-10-18T04:38:26.786Z,18.80
2022-10-18T04:40:53.550Z,18.80
2022-10-18T04:43:20.365Z,18.80
2022-10-18T04:45:50.333Z,18.80
2022-10-18T04:48:17.708Z,18.80
2022-10-18T04:50:44.468Z,18.70
2022-10-18T04:53:14.645Z,18.80
2022-10-18T04:55:50.268Z,18.70
2022-10-18T04:58:18.037Z,18.70
2022-10-18T05:00:45.201Z,18.70
2022-10-18T05:03:14.012Z,18.70
2022-10-18T05:06:00.197Z,18.70
2022-10-18T05:08:27.380Z,18.60
2022-10-18T05:10:54.025Z,18.60
2022-10-18T05:13:20.752Z,18.60
2022-10-18T05:15:47.610Z,18.60
2022-10-18T05:18:14.198Z,18.60
2022-10-18T05:20:40.886Z,18.60
2022-10-18T05:23:10.679Z,18.60
2022-10-18T05:25:41.446Z,18.60
2022-10-18T05:28:15.571Z,18.60
2022-10-18T05:30:47.828Z,18.60
2022-10-18T05:33:14.449Z,18.60
2022-10-18T05:35:41.142Z,18.60
2022-10-18T05:38:08.537Z,18.60
2022-10-18T05:40:38.729Z,18.60
2022-10-18T05:43:05.340Z,18.60
2022-10-18T05:45:32.109Z,18.60
2022-10-18T05:47:58.752Z,18.50
2022-10-18T05:50:25.362Z,18.50
2022-10-18T05:53:02.663Z,18.50
2022-10-18T05:55:39.326Z,18.50
2022-10-18T05:58:06.023Z,18.60
2022-10-18T06:00:35.646Z,18.50
2022-10-18T06:03:02.250Z,18.50
2022-10-18T06:05:28.942Z,18.50
2022-10-18T06:07:56.680Z,18.40
2022-10-18T06:10:23.358Z,18.40
2022-10-18T06:12:50.240Z,18.40
2022-10-18T06:15:16.929Z,18.30
2022-10-18T06:17:43.531Z,18.30
2022-10-18T06:20:10.620Z,18.30
2022-10-18T06:22:37.337Z,18.30
2022-10-18T06:25:04.186Z,18.30
2022-10-18T06:27:31.950Z,18.30
2022-10-18T06:29:58.865Z,18.30
2022-10-18T06:32:25.677Z,18.30
2022-10-18T06:34:52.283Z,18.30
2022-10-18T06:37:18.916Z,18.30
2022-10-18T06:39:45.588Z,18.30
2022-10-18T06:42:12.354Z,18.30
2022-10-18T06:44:38.946Z,18.40
2022-10-18T06:47:07.800Z,18.40
2022-10-18T06:49:34.402Z,18.40
2022-10-18T06:52:01.129Z,18.40
2022-10-18T06:54:27.729Z,18.50
2022-10-18T06:56:57.305Z,18.50
2022-10-18T06:59:26.349Z,18.50
2022-10-18T07:01:55.671Z,18.50
2022-10-18T07:04:22.613Z,18.50
2022-10-18T07:06:49.202Z,18.60
2022-10-18T07:09:15.808Z,18.60
2022-10-18T07:11:42.502Z,18.60
2022-10-18T07:14:15.436Z,18.70
2022-10-18T07:16:42.996Z,18.70
2022-10-18T07:19:12.100Z,18.70
2022-10-18T07:21:40.977Z,18.80
2022-10-18T07:24:08.808Z,18.80
2022-10-18T07:26:35.585Z,18.80
2022-10-18T07:29:08.963Z,18.90
2022-10-18T07:31:36.613Z,18.90
2022-10-18T07:34:07.290Z,18.90
2022-10-18T07:36:34.462Z,18.90
2022-10-18T07:39:01.156Z,19.00
2022-10-18T07:41:28.911Z,19.00
2022-10-18T07:43:55.620Z,19.00
2022-10-18T07:46:22.996Z,19.10
2022-10-18T07:48:50.073Z,19.10
2022-10-18T07:51:17.747Z,19.10
2022-10-18T07:53:44.804Z,19.10
2022-10-18T07:56:19.028Z,19.10
2022-10-18T07:58:47.593Z,19.10
2022-10-18T08:01:15.508Z,19.10
2022-10-18T08:03:42.906Z,19.20
2022-10-18T08:06:11.211Z,19.20
2022-10-18T08:08:39.629Z,19.20
2022-10-18T08:11:09.110Z,19.30
2022-10-18T08:13:36.571Z,19.30
2022-10-18T08:16:28.048Z,19.30
2022-10-18T08:18:56.806Z,19.30
2022-10-18T08:21:23.477Z,19.30
2022-10-18T08:23:50.535Z,19.30
2022-10-18T08:26:19.880Z,19.30
2022-10-18T08:28:53.917Z,19.40
2022-10-18T08:31:25.593Z,19.40
2022-10-18T08:33:52.205Z,19.40
2022-10-18T08:36:19.315Z,19.40
2022-10-18T08:38:46.020Z,19.40
2022-10-18T08:41:37.783Z,19.50
2022-10-18T08:44:20.996Z,19.50
2022-10-18T08:46:55.346Z,19.50
2022-10-18T08:49:46.578Z,19.50
2022-10-18T08:52:37.207Z,19.50
2022-10-18T08:55:17.218Z,19.50
2022-10-18T08:57:44.788Z,19.50
2022-10-18T09:00:22.794Z,19.50
2022-10-18T09:03:05.259Z,19.60
2022-10-18T09:05:41.458Z,19.60
2022-10-18T09:08:46.608Z,19.70
2022-10-18T09:11:24.559Z,19.70
2022-10-18T09:14:21.923Z,19.70
2022-10-18T09:16:54.294Z,19.70
2022-10-18T09:19:33.221Z,19.70
2022-10-18T09:22:14.749Z,19.80
2022-10-18T09:24:51.551Z,19.80
2022-10-18T09:27:20.701Z,19.80
2022-10-18T09:30:09.070Z,19.80
2022-10-18T09:33:26.960Z,19.80
2022-10-18T09:36:03.073Z,19.80
2022-10-18T09:38:33.102Z,19.80
2022-10-18T09:41:07.183Z,19.70
2022-10-18T09:43:46.954Z,19.70
2022-10-18T09:46:15.319Z,19.80
2022-10-18T09:48:49.041Z,19.80
2022-10-18T09:51:23.812Z,19.80
2022-10-18T09:54:28.084Z,19.90
2022-10-18T09:57:04.226Z,19.90
2022-10-18T09:59:47.266Z,19.90
2022-10-18T10:02:22.513Z,19.90
2022-10-18T10:04:50.693Z,19.90
2022-10-18T10:07:32.530Z,20.00
2022-10-18T10:10:20.377Z,20.00
2022-10-18T10:12:47.913Z,20.10
2022-10-18T10:15:19.584Z,20.10
2022-10-18T10:17:59.881Z,20.10
2022-10-18T10:20:47.250Z,20.10
2022-10-18T10:23:20.911Z,20.10
2022-10-18T10:25:56.438Z,20.10
2022-10-18T10:28:32.825Z,20.10
2022-10-18T10:31:46.819Z,20.10
2022-10-18T10:34:13.386Z,20.10
2022-10-18T10:36:48.961Z,20.20
2022-10-18T10:39:21.282Z,20.20
2022-10-18T10:41:59.930Z,20.20
2022-10-18T10:44:33.621Z,20.30
2022-10-18T10:47:00.358Z,20.30
2022-10-18T10:49:45.861Z,20.30
2022-10-18T10:52:27.705Z,20.30
2022-10-18T10:55:11.045Z,20.30
2022-10-18T10:57:50.682Z,20.30
2022-10-18T11:00:37.399Z,20.40
2022-10-18T11:03:27.997Z,20.50
2022-10-18T11:05:57.692Z,20.50
2022-10-18T11:08:38.606Z,20.60
2022-10-18T11:11:15.335Z,20.70
2022-10-18T11:13:56.944Z,20.70
2022-10-18T11:17:07.734Z,20.80
2022-10-18T11:19:53.358Z,20.90
2022-10-18T11:22:24.569Z,20.90
2022-10-18T11:24:53.434Z,21.00
2022-10-18T11:27:32.664Z,21.10
2022-10-18T11:30:13.542Z,21.10
2022-10-18T11:32:49.816Z,21.20
2022-10-18T11:35:23.546Z,21.30
2022-10-18T11:38:24.137Z,21.30
2022-10-18T11:41:04.781Z,21.30
2022-10-18T11:44:00.452Z,21.40
2022-10-18T11:46:30.363Z,21.40
2022-10-18T11:49:41.098Z,21.40
2022-10-18T11:52:28.393Z,21.40
2022-10-18T11:55:10.197Z,21.40
2022-10-18T11:57:57.474Z,21.40
2022-10-18T12:00:42.753Z,21.30
2022-10-18T12:03:34.840Z,21.30
2022-10-18T12:06:06.165Z,21.20
2022-10-18T12:08:43.882Z,21.20
2022-10-18T12:11:26.079Z,21.10
2022-10-18T12:13:57.749Z,21.10
2022-10-18T12:16:49.464Z,21.10
2022-10-18T12:19:26.994Z,21.10
2022-10-18T12:21:57.512Z,21.00
2022-10-18T12:24:28.629Z,21.00
2022-10-18T12:26:59.428Z,21.00
2022-10-18T12:29:29.911Z,21.00
2022-10-18T12:32:15.426Z,21.00
2022-10-18T12:34:46.669Z,21.10
2022-10-18T12:37:38.468Z,21.20
2022-10-18T12:40:35.627Z,21.30
2022-10-18T12:43:09.510Z,21.40
2022-10-18T12:45:48.550Z,21.50
2022-10-18T12:48:49.140Z,21.60
2022-10-18T12:51:19.855Z,21.60
2022-10-18T12:54:00.620Z,21.60
2022-10-18T12:56:34.067Z,21.60
2022-10-18T12:59:15.729Z,21.60
2022-10-18T13:01:51.543Z,21.50
2022-10-18T13:04:27.580Z,21.40
2022-10-18T13:07:34.360Z,21.30
2022-10-18T13:10:10.443Z,21.30
2022-10-18T13:13:38.274Z,21.20
2022-10-18T13:16:23.762Z,21.10
2022-10-18T13:18:55.235Z,21.10
2022-10-18T13:21:46.545Z,21.00
2022-10-18T13:24:39.437Z,21.00
2022-10-18T13:27:36.020Z,21.00
2022-10-18T13:30:26.153Z,21.00
2022-10-18T13:33:18.469Z,21.00
2022-10-18T13:36:22.983Z,21.20
2022-10-18T13:38:50.365Z,21.50
2022-10-18T13:44:03.103Z,22.70
2022-10-18T13:46:32.764Z,23.50
2022-10-18T13:49:39.943Z,24.50
2022-10-18T13:52:24.641Z,25.50
2022-10-18T13:55:22.173Z,26.60
2022-10-18T13:58:22.357Z,27.50
2022-10-18T14:01:02.235Z,28.20
2022-10-18T14:03:56.309Z,28.50
2022-10-18T14:06:28.113Z,28.70
2022-10-18T14:09:14.204Z,28.60
2022-10-18T14:12:02.786Z,28.40
2022-10-18T14:14:48.250Z,28.20
2022-10-18T14:17:33.921Z,27.90
2022-10-18T14:20:13.399Z,27.60
2022-10-18T14:22:45.736Z,27.30
2022-10-18T14:25:28.825Z,27.00
2022-10-18T14:28:14.114Z,26.70
2022-10-18T14:30:57.804Z,26.40
2022-10-18T14:33:46.169Z,26.20
2022-10-18T14:36:21.982Z,26.00
2022-10-18T14:38:52.732Z,25.80
2022-10-18T14:41:23.825Z,25.60
2022-10-18T14:43:52.497Z,25.50
2022-10-18T14:46:29.019Z,25.40
2022-10-18T14:48:58.777Z,25.20
2022-10-18T14:51:26.939Z,25.20
2022-10-18T14:53:57.086Z,25.30
2022-10-18T14:56:29.460Z,25.50
2022-10-18T14:59:04.205Z,26.00
2022-10-18T15:01:32.672Z,26.60
2022-10-18T15:04:02.479Z,27.20
2022-10-18T15:06:29.148Z,27.80
2022-10-18T15:09:00.868Z,28.40
2022-10-18T15:11:28.122Z,28.90
2022-10-18T15:13:58.427Z,29.50
2022-10-18T15:16:30.440Z,29.90
2022-10-18T15:19:15.555Z,30.30
2022-10-18T15:22:19.898Z,30.60
2022-10-18T15:24:44.038Z,30.90
2022-10-18T15:27:22.834Z,31.20
2022-10-18T15:29:49.804Z,31.40
2022-10-18T15:32:23.921Z,31.60
2022-10-18T15:34:50.654Z,31.70
2022-10-18T15:37:42.790Z,31.70
2022-10-18T15:40:22.672Z,31.80
2022-10-18T15:42:54.964Z,31.80
2022-10-18T15:45:34.574Z,31.70
2022-10-18T15:48:09.227Z,31.60
2022-10-18T15:50:38.506Z,31.20
2022-10-18T15:53:20.223Z,30.80
2022-10-18T15:56:02.272Z,30.20
2022-10-18T15:58:39.895Z,29.50
2022-10-18T16:01:14.434Z,28.90
2022-10-18T16:03:41.574Z,28.20
2022-10-18T16:06:13.380Z,27.60
2022-10-18T16:08:47.532Z,27.00
2022-10-18T16:11:19.596Z,26.40
2022-10-18T16:13:49.350Z,25.80
2022-10-18T16:16:22.529Z,25.30
2022-10-18T16:18:49.922Z,24.90
2022-10-18T16:21:17.650Z,24.40
2022-10-18T16:23:44.640Z,24.00
2022-10-18T16:26:12.973Z,23.60
2022-10-18T16:28:39.698Z,23.30
2022-10-18T16:31:06.856Z,22.90
2022-10-18T16:33:33.568Z,22.60
2022-10-18T16:36:00.221Z,22.30
2022-10-18T16:38:35.159Z,22.00
2022-10-18T16:41:06.988Z,21.80
2022-10-18T16:43:34.868Z,21.50
2022-10-18T16:46:02.509Z,21.30
2022-10-18T16:48:29.479Z,21.00
2022-10-18T16:50:56.761Z,20.80
2022-10-18T16:53:25.108Z,20.70
2022-10-18T16:56:02.678Z,20.40
2022-10-18T16:58:31.441Z,20.30
2022-10-18T17:00:59.023Z,20.10
2022-10-18T17:03:26.409Z,19.90
2022-10-18T17:05:53.697Z,19.70
2022-10-18T17:08:25.903Z,19.60
2022-10-18T17:10:56.251Z,19.40
2022-10-18T17:13:24.156Z,19.30
2022-10-18T17:15:51.881Z,19.20
2022-10-18T17:18:26.282Z,19.00
2022-10-18T17:20:53.149Z,18.90
2022-10-18T17:23:19.793Z,18.80
2022-10-18T17:25:58.950Z,18.60
2022-10-18T17:28:33.934Z,18.50
2022-10-18T17:31:06.225Z,18.40
2022-10-18T17:33:32.953Z,18.40
2022-10-18T17:35:59.704Z,18.20
2022-10-18T17:38:26.350Z,18.20
2022-10-18T17:40:53.700Z,18.10
2022-10-18T17:43:25.200Z,18.00
2022-10-18T17:45:56.366Z,17.90
2022-10-18T17:48:24.473Z,17.80
2022-10-18T17:50:51.301Z,17.80
2022-10-18T17:53:22.366Z,17.70
2022-10-18T17:55:49.373Z,17.60
2022-10-18T17:58:16.012Z,17.50
2022-10-18T18:00:44.871Z,17.40
2022-10-18T18:03:14.531Z,17.40
2022-10-18T18:05:43.438Z,17.30
2022-10-18T18:08:11.732Z,17.20
2022-10-18T18:10:38.562Z,17.10
2022-10-18T18:13:05.298Z,17.10
2022-10-18T18:15:34.146Z,17.00
2022-10-18T18:18:00.873Z,16.90
2022-10-18T18:20:35.523Z,16.90
2022-10-18T18:23:02.150Z,16.80
2022-10-18T18:25:28.770Z,16.80
2022-10-18T18:27:55.438Z,16.70
2022-10-18T18:30:25.227Z,16.60
2022-10-18T18:32:54.305Z,16.60
2022-10-18T18:35:23.129Z,16.50
2022-10-18T18:37:53.695Z,16.40
2022-10-18T18:40:23.135Z,16.40
2022-10-18T18:43:07.372Z,16.40
2022-10-18T18:45:36.433Z,16.30
2022-10-18T18:48:05.640Z,16.30
2022-10-18T18:50:34.205Z,16.20
2022-10-18T18:53:00.865Z,16.20
2022-10-18T18:55:27.865Z,16.10
2022-10-18T18:57:54.547Z,16.00
2022-10-18T19:00:24.092Z,16.00
2022-10-18T19:02:50.718Z,15.90
2022-10-18T19:05:20.911Z,15.90
2022-10-18T19:07:48.688Z,15.80
2022-10-18T19:10:15.409Z,15.80
2022-10-18T19:12:44.420Z,15.80
2022-10-18T19:15:11.899Z,15.60
2022-10-18T19:17:41.644Z,15.60
2022-10-18T19:20:12.195Z,15.60
2022-10-18T19:22:40.491Z,15.60
2022-10-18T19:25:09.378Z,15.50
2022-10-18T19:27:38.344Z,15.50
2022-10-18T19:30:08.744Z,15.40
2022-10-18T19:32:37.648Z,15.40
2022-10-18T19:35:04.752Z,15.30
2022-10-18T19:37:31.757Z,15.30
2022-10-18T19:39:59.648Z,15.20
2022-10-18T19:42:31.741Z,15.20
2022-10-18T19:44:58.878Z,15.20
2022-10-18T19:47:25.901Z,15.10
2022-10-18T19:49:53.660Z,15.10
2022-10-18T19:52:20.279Z,15.00
2022-10-18T19:54:48.767Z,15.00
2022-10-18T19:57:15.614Z,15.00
2022-10-18T19:59:42.329Z,14.90
2022-10-18T20:02:14.255Z,14.90
2022-10-18T20:04:43.341Z,14.90
2022-10-18T20:07:12.418Z,14.80
2022-10-18T20:09:39.745Z,14.80
2022-10-18T20:12:06.335Z,14.70
2022-10-18T20:14:33.013Z,14.70
2022-10-18T20:16:59.690Z,14.60
2022-10-18T20:19:26.307Z,14.60
2022-10-18T20:21:54.984Z,14.60
2022-10-18T20:24:21.590Z,14.50
2022-10-18T20:26:48.247Z,14.50
2022-10-18T20:29:14.993Z,14.50
2022-10-18T20:31:41.698Z,14.40
2022-10-18T20:34:10.993Z,14.40
2022-10-18T20:36:37.802Z,14.30
2022-10-18T20:39:05.991Z,14.30
2022-10-18T20:41:35.323Z,14.20
2022-10-18T20:44:07.862Z,14.20
2022-10-18T20:46:36.447Z,14.20
2022-10-18T20:49:04.372Z,14.20
2022-10-18T20:51:33.477Z,14.10
2022-10-18T20:54:01.570Z,14.10
2022-10-18T20:56:28.260Z,14.10
2022-10-18T20:58:56.714Z,14.10
2022-10-18T21:01:25.252Z,14.00
2022-10-18T21:03:56.730Z,14.00
2022-10-18T21:06:28.525Z,13.90
2022-10-18T21:09:00.540Z,13.90
2022-10-18T21:11:28.607Z,13.90
2022-10-18T21:14:02.380Z,13.90
2022-10-18T21:16:32.204Z,13.80
2022-10-18T21:19:11.566Z,13.80
2022-10-18T21:21:38.598Z,13.80
2022-10-18T21:24:07.807Z,13.70
2022-10-18T21:26:35.283Z,13.70
2022-10-18T21:29:07.157Z,13.60
2022-10-18T21:31:36.708Z,13.60
2022-10-18T21:34:09.819Z,13.60
2022-10-18T21:36:37.249Z,13.60
2022-10-18T21:39:07.316Z,13.50
2022-10-18T21:41:37.637Z,13.50
2022-10-18T21:44:06.962Z,13.50
2022-10-18T21:46:36.752Z,13.40
2022-10-18T21:49:07.586Z,13.40
2022-10-18T21:51:34.593Z,13.40
2022-10-18T21:54:04.886Z,13.30
2022-10-18T21:56:34.313Z,13.30
2022-10-18T21:59:01.747Z,13.30
2022-10-18T22:01:36.829Z,13.30
2022-10-18T22:04:06.264Z,13.20
2022-10-18T22:09:08.178Z,13.10
2022-10-18T22:11:42.164Z,13.10
2022-10-18T22:14:08.827Z,13.10
2022-10-18T22:16:35.511Z,13.00
2022-10-18T22:19:03.173Z,13.00
2022-10-18T22:21:30.428Z,13.00
2022-10-18T22:23:58.938Z,13.00
2022-10-18T22:26:29.000Z,12.90
2022-10-18T22:29:05.877Z,12.90
2022-10-18T22:31:35.013Z,12.90
2022-10-18T22:34:04.539Z,12.80
2022-10-18T22:36:32.673Z,12.80
2022-10-18T22:39:02.232Z,12.80
2022-10-18T22:41:29.176Z,12.70
2022-10-18T22:43:58.387Z,12.70
2022-10-18T22:46:30.001Z,12.70
2022-10-18T22:48:58.936Z,12.70
2022-10-18T22:51:26.783Z,12.60
2022-10-18T22:53:53.428Z,12.60
2022-10-18T22:56:21.905Z,12.60
2022-10-18T22:58:48.767Z,12.50
2022-10-18T23:01:21.194Z,12.50
2022-10-18T23:03:51.812Z,12.50
2022-10-18T23:06:23.169Z,12.50
2022-10-18T23:08:51.131Z,12.50
2022-10-18T23:11:18.183Z,12.40
2022-10-18T23:13:48.058Z,12.40
2022-10-18T23:16:15.973Z,12.40
2022-10-18T23:18:42.740Z,12.30
2022-10-18T23:21:11.846Z,12.30
2022-10-18T23:23:41.341Z,12.30
2022-10-18T23:26:16.790Z,12.30
2022-10-18T23:28:45.411Z,12.20
2022-10-18T23:31:17.855Z,12.20
2022-10-18T23:33:46.693Z,12.20
2022-10-18T23:36:14.239Z,12.10
2022-10-18T23:38:41.417Z,12.20
2022-10-18T23:41:09.883Z,12.10
2022-10-18T23:43:39.492Z,12.10
2022-10-18T23:46:06.499Z,12.00
2022-10-18T23:48:34.130Z,12.10
2022-10-18T23:51:01.325Z,12.00
2022-10-18T23:53:28.297Z,12.00
2022-10-18T23:55:57.701Z,12.00
2022-10-18T23:58:25.830Z,12.00
